• Join FlightAware (Why Join?)
  • Login
  • US Flag 
10:28AM EDT


 

Airport Tracker/Info


-or-


 

Live Flight TrackerFlight Track Log ✈ N8887B ✈ 23-Oct-2013 ✈ KSTP - KDVL

Flight Track Log - Related Links

Times and Time Zones

All times are in EDT time to prevent confusion due to time zone crossing. See the N8887B flight status page for this flight to view local times or setup timezone preferences in your user account.

Time Position Orientation Groundspeed Altitude Reporting Facility
EDT Latitude Longitude Course Direction KTS MPH feet Rate Location/Type
05:23PM 44.9667 -93.0500 19° North 142 163 2,700  Level Minneapolis TRACON
05:24PM 45.0000 -93.0333 19° North 155 178 3,900 660 Climbing Minneapolis TRACON
05:25PM 45.0611 -93.0564 345° North 196 226 4,100  Climbing Minneapolis Center
05:26PM 45.1111 -93.0931 333° Northwest 210 242 4,000 -180 Descending Minneapolis Center
05:27PM 45.1536 -93.1511 316° Northwest 214 246 3,800 120 Descending Minneapolis Center
05:28PM 45.1919 -93.2097 313° West 205 236 4,300 720 Climbing Minneapolis Center
05:29PM 45.2044 -93.2783 285° West 183 211 5,300 1,500 Climbing Minneapolis Center
05:30PM 45.2239 -93.3497 291° West 162 186 7,500 1,740 Climbing Minneapolis Center
05:31PM 45.2389 -93.4028 292° West 148 170 9,000 1,440 Climbing Minneapolis Center
05:32PM 45.2542 -93.4606 291° West 157 181 10,500 1,500 Climbing Minneapolis Center
05:33PM 45.2700 -93.5178 291° West 156 180 12,100 1,440 Climbing Minneapolis Center
05:34PM 45.2969 -93.5614 311° West 149 171 13,500 900 Climbing Minneapolis Center
05:35PM 45.3272 -93.6075 313° West 162 186 14,000 240 Climbing Minneapolis Center
05:36PM 45.3719 -93.6883 308° West 214 246 14,000  Level Minneapolis Center
05:37PM 45.4103 -93.7564 309° West 221 254 14,000  Level Minneapolis Center
05:38PM 45.4492 -93.8211 311° West 216 249 14,000 -60 Level Minneapolis Center
05:39PM 45.4861 -93.8867 309° West 213 245 13,900 -60 Descending Minneapolis Center
05:40PM 45.5231 -93.9525 309° West 213 245 13,900  Level Minneapolis Center
05:41PM 45.5600 -94.0181 309° West 213 245 13,900  Level Minneapolis Center
05:42PM 45.6036 -94.0967 308° West 213 245 13,900  Level Minneapolis Center
05:43PM 45.6422 -94.1603 311° West 213 245 13,900  Level Minneapolis Center
05:44PM 45.6781 -94.2256 308° West 210 242 13,900  Level Minneapolis Center
05:45PM 45.7161 -94.2908 310° West 212 244 13,900  Level Minneapolis Center
05:46PM 45.7539 -94.3558 310° West 213 245 13,900  Level Minneapolis Center
05:47PM 45.7906 -94.4203 309° West 211 243 13,900  Level Minneapolis Center
05:48PM 45.8336 -94.5003 308° West 211 243 13,900  Level Minneapolis Center
05:50PM 45.8694 -94.5667 308° West 211 243 13,900  Level Minneapolis Center
05:51PM 45.9067 -94.6300 310° West 210 242 13,900  Level Minneapolis Center
05:52PM 45.9428 -94.6961 308° West 210 242 13,900  Level Minneapolis Center
05:53PM 45.9783 -94.7611 308° West 209 241 13,900  Level Minneapolis Center
05:54PM 46.0156 -94.8253 310° West 209 241 13,900  Level Minneapolis Center
05:55PM 46.0592 -94.9042 309° West 210 242 13,900  Level Minneapolis Center
05:56PM 46.0958 -94.9700 309° West 211 243 13,900  Level Minneapolis Center
05:57PM 46.1322 -95.0361 308° West 210 242 13,900  Level Minneapolis Center
05:58PM 46.1689 -95.1064 307° West 211 243 13,900  Level Minneapolis Center
05:59PM 46.2031 -95.1681 309° West 209 241 13,900  Level Minneapolis Center
06:00PM 46.2386 -95.2350 308° West 209 241 13,900  Level Minneapolis Center
06:01PM 46.2822 -95.3139 309° West 210 242 13,900  Level Minneapolis Center
06:02PM 46.3181 -95.3814 308° West 211 243 13,900  Level Minneapolis Center
06:03PM 46.3558 -95.4531 307° West 213 245 13,900  Level Minneapolis Center
06:04PM 46.3925 -95.5167 310° West 210 242 13,900  Level Minneapolis Center
06:05PM 46.4281 -95.5856 307° West 213 245 13,900  Level Minneapolis Center
06:06PM 46.4706 -95.6650 308° West 220 253 13,900  Level Minneapolis Center
06:07PM 46.5097 -95.7361 309° West 217 250 13,900  Level Minneapolis Center
06:08PM 46.5447 -95.8036 307° West 218 251 13,900  Level Minneapolis Center
06:09PM 46.5839 -95.8744 309° West 215 247 14,000  Climbing Minneapolis Center
06:10PM 46.6219 -95.9461 308° West 215 247 14,000  Level Minneapolis Center
06:11PM 46.6606 -96.0181 308° West 215 247 14,000  Level Minneapolis Center
06:12PM 46.6981 -96.0897 307° West 215 247 14,000  Level Minneapolis Center
06:13PM 46.7361 -96.1611 308° West 215 247 14,000  Level Minneapolis Center
06:14PM 46.7742 -96.2331 308° West 215 247 14,000  Level Minneapolis Center
06:15PM 46.8094 -96.2997 308° West 220 253 14,000  Level Minneapolis Center
06:16PM 46.8472 -96.3736 307° West 215 247 14,000  Level Minneapolis Center
06:17PM 46.8883 -96.4508 308° West 215 247 14,000  Level Minneapolis Center
06:18PM 46.9264 -96.5261 307° West 219 252 14,000  Level Minneapolis Center
06:20PM 46.9608 -96.5922 307° West 216 249 14,000  Level Minneapolis Center
06:21PM 46.9983 -96.6644 307° West 214 246 14,000  Level Minneapolis Center
06:22PM 47.0350 -96.7361 307° West 212 244 14,000  Level Minneapolis Center
06:23PM 47.0731 -96.8075 308° West 214 246 14,000  Level Minneapolis Center
06:24PM 47.1103 -96.8792 307° West 212 244 14,000  Level Minneapolis Center
06:25PM 47.1472 -96.9517 307° West 213 245 14,000  Level Minneapolis Center
06:26PM 47.1842 -97.0228 307° West 211 243 14,000  Level Minneapolis Center
06:27PM 47.2194 -97.0933 306° West 207 238 14,000  Level Minneapolis Center
06:28PM 47.2539 -97.1644 306° West 204 235 14,000  Level Minneapolis Center
06:29PM 47.2867 -97.2300 306° West 205 236 14,000  Level Minneapolis Center
06:30PM 47.3225 -97.3000 307° West 206 237 14,000  Level Minneapolis Center
06:31PM 47.3583 -97.3703 307° West 205 236 14,000  Level Minneapolis Center
06:32PM 47.3942 -97.4406 307° West 205 236 14,000 -60 Level Minneapolis Center
06:33PM 47.4294 -97.5108 307° West 205 236 13,900 -60 Descending Minneapolis Center
06:34PM 47.4656 -97.5817 307° West 206 237 13,900  Level Minneapolis Center
06:35PM 47.4978 -97.6494 305° West 212 244 13,900  Level Minneapolis Center
06:36PM 47.5311 -97.7164 306° West 210 242 13,900  Level Minneapolis Center
06:37PM 47.5633 -97.7842 305° West 206 237 13,900 -300 Level Minneapolis Center
06:38PM 47.6025 -97.8631 306° West 204 235 13,400 -540 Descending Minneapolis Center
06:39PM 47.6381 -97.9325 307° West 210 242 12,800 -540 Descending Minneapolis Center
06:40PM 47.6742 -98.0058 306° West 217 250 12,300 -540 Descending Minneapolis Center
06:41PM 47.7100 -98.0786 306° West 219 252 11,700 -780 Descending Minneapolis Center
06:42PM 47.7542 -98.1658 307° West 220 253 10,800 -780 Descending Minneapolis Center
06:43PM 47.7903 -98.2392 306° West 220 253 10,200 -600 Descending Minneapolis Center
06:44PM 47.8256 -98.3142 305° West 221 254 9,600 -780 Descending Minneapolis Center
06:45PM 47.8619 -98.3892 306° West 223 257 8,600 -1,020 Descending Minneapolis Center
06:46PM 47.8986 -98.4575 309° West 219 252 7,600 -1,020 Descending Minneapolis Center
06:47PM 47.9322 -98.5275 306° West 214 246 6,500 -1,260 Descending Minneapolis Center
06:48PM 47.9714 -98.6081 306° West 206 237 5,100 -1,380 Descending Minneapolis Center
06:50PM 48.0010 -98.6849 315° West  Level FlightAware Approximate
06:57PM 48.1000 -98.9000 270° West  Level FlightAware Approximate
06:58PM 48.1146 -98.9083 270° West  Level Estimated
06:59PM 48.1146 -98.9083 270° West  Level Estimated